Time;durP1;ratioP1;P1;durP2;ratioP2;P2;SDS_P1;SDS_P2;PMS_P1;PMS_P2;Temp;Humidity;BMP_temperature;BMP_pressure;BME280_temperature;BME280_humidity;BME280_pressure;Samples;Min_cycle;Max_cycle;Signal;HPM_P1;HPM_P2
2021/07/16 00:01:18;;;;;;;1.13;0.43;;;;;;;28.55;38.84;96616.91;5000675;28;20030;-29
2021/07/16 00:03:43;;;;;;;1.00;0.80;;;;;;;28.55;38.71;96624.81;5007173;28;20049;-27
2021/07/16 00:06:09;;;;;;;3.05;0.50;;;;;;;28.56;38.62;96621.22;5001578;28;20530;-28
2021/07/16 00:08:34;;;;;;;2.47;0.70;;;;;;;28.55;38.64;96611.63;5005848;28;20041;-26
2021/07/16 00:11:00;;;;;;;2.90;0.70;;;;;;;28.55;38.67;96609.00;5005114;28;20021;-29
2021/07/16 00:13:25;;;;;;;2.00;0.57;;;;;;;28.54;39.03;96608.13;5003803;28;20674;-29
2021/07/16 00:15:50;;;;;;;1.90;0.75;;;;;;;28.54;38.73;96602.03;5003756;28;20037;-30
2021/07/16 00:18:16;;;;;;;1.30;0.70;;;;;;;28.54;38.69;96602.03;4998566;28;20042;-28
2021/07/16 00:20:44;;;;;;;1.77;0.50;;;;;;;28.54;38.72;96602.88;5009074;28;20053;-29
2021/07/16 00:23:10;;;;;;;3.17;0.45;;;;;;;28.55;38.88;96598.44;5007047;28;20381;-30
2021/07/16 00:25:35;;;;;;;3.35;0.80;;;;;;;28.53;38.49;96601.19;5004958;28;20026;-28
2021/07/16 00:28:00;;;;;;;3.63;0.70;;;;;;;28.54;38.69;96599.41;5006489;28;20049;-30
2021/07/16 00:30:26;;;;;;;1.55;0.60;;;;;;;28.54;38.67;96609.94;5002640;28;20742;-30
2021/07/16 00:32:51;;;;;;;3.53;0.75;;;;;;;28.54;38.67;96613.41;5002819;28;20087;-28
2021/07/16 00:35:16;;;;;;;0.95;0.40;;;;;;;28.54;38.82;96617.84;5023947;28;20029;-28
2021/07/16 00:37:42;;;;;;;0.80;0.47;;;;;;;28.54;38.72;96613.41;5008515;28;20516;-31
2021/07/16 00:40:09;;;;;;;1.20;0.60;;;;;;;28.54;38.48;96615.22;5008781;28;20040;-29
2021/07/16 00:42:34;;;;;;;3.10;0.60;;;;;;;28.54;38.63;96618.69;5000943;28;20476;-28
2021/07/16 00:45:00;;;;;;;1.48;0.60;;;;;;;28.54;38.42;96623.13;5006196;28;20037;-29
2021/07/16 00:47:25;;;;;;;3.25;0.60;;;;;;;28.55;38.55;96624.81;5007684;28;20030;-31
2021/07/16 00:49:51;;;;;;;4.63;0.68;;;;;;;28.55;38.66;96627.44;5005344;28;20412;-29
2021/07/16 00:52:16;;;;;;;2.28;0.60;;;;;;;28.55;38.67;96638.00;5001219;28;20043;-28
2021/07/16 00:54:41;;;;;;;1.27;0.50;;;;;;;28.54;38.62;96634.50;5005830;28;20013;-30
2021/07/16 00:57:07;;;;;;;2.47;0.50;;;;;;;28.53;38.36;96637.25;5002995;28;20034;-32
2021/07/16 00:59:32;;;;;;;2.88;0.68;;;;;;;28.54;38.50;96644.22;5002319;28;20034;-31
2021/07/16 01:01:58;;;;;;;1.98;0.70;;;;;;;28.54;38.52;96654.75;5003540;28;20442;-30
2021/07/16 01:04:24;;;;;;;3.35;0.70;;;;;;;28.54;38.54;96652.13;5001326;28;20164;-28
2021/07/16 01:06:49;;;;;;;2.47;0.90;;;;;;;28.53;38.58;96647.81;4990998;28;20052;-28
2021/07/16 01:09:14;;;;;;;2.40;0.50;;;;;;;28.54;38.56;96660.03;5016971;28;20451;-27
2021/07/16 01:11:40;;;;;;;1.35;0.50;;;;;;;28.53;38.47;96658.34;4999455;28;20041;-30
2021/07/16 01:14:05;;;;;;;4.57;0.70;;;;;;;28.53;38.40;96653.91;5002135;28;20037;-28
2021/07/16 01:16:31;;;;;;;3.97;0.50;;;;;;;28.54;38.41;96660.03;5002484;28;20591;-31
2021/07/16 01:18:56;;;;;;;5.45;0.80;;;;;;;28.53;38.43;96658.34;5000347;28;20030;-28
2021/07/16 01:21:22;;;;;;;3.33;0.80;;;;;;;28.54;38.32;96665.31;4998596;28;20136;-30
2021/07/16 01:23:48;;;;;;;1.98;0.70;;;;;;;28.53;38.39;96658.34;5002093;28;20029;-28
2021/07/16 01:26:13;;;;;;;5.95;0.80;;;;;;;28.52;38.34;96659.28;5000814;28;20052;-28
2021/07/16 01:28:39;;;;;;;5.90;0.47;;;;;;;28.53;38.21;96668.91;5006224;28;20523;-29
2021/07/16 01:31:05;;;;;;;1.27;0.52;;;;;;;28.52;38.40;96654.84;5001709;28;20044;-29
2021/07/16 01:33:31;;;;;;;1.67;0.90;;;;;;;28.49;38.29;96657.69;5004088;28;20026;-31
2021/07/16 01:35:57;;;;;;;1.45;0.70;;;;;;;28.53;38.15;96653.09;5002133;28;20121;-28
2021/07/16 01:38:22;;;;;;;3.22;0.50;;;;;;;28.52;38.39;96660.13;5005280;28;20022;-29
2021/07/16 01:40:48;;;;;;;1.65;0.70;;;;;;;28.53;38.35;96658.34;5004348;28;20046;-30
2021/07/16 01:43:13;;;;;;;6.82;0.70;;;;;;;28.52;38.22;96656.63;5004907;28;20022;-28
2021/07/16 01:45:40;;;;;;;2.35;0.70;;;;;;;28.53;38.25;96653.09;5006972;28;20061;-31
2021/07/16 01:48:07;;;;;;;0.93;0.50;;;;;;;28.52;38.23;96654.00;5006174;28;20042;-27
2021/07/16 01:50:33;;;;;;;0.88;0.57;;;;;;;28.51;38.12;96650.53;5000955;28;20029;-29
2021/07/16 01:52:58;;;;;;;1.60;0.70;;;;;;;28.51;38.26;96644.41;5002272;28;20030;-30
2021/07/16 01:55:24;;;;;;;3.75;0.70;;;;;;;28.52;38.10;96651.38;5000851;28;20065;-29
2021/07/16 01:57:53;;;;;;;0.85;0.60;;;;;;;28.50;38.07;96642.72;4999435;28;20033;-28
2021/07/16 02:00:22;;;;;;;0.80;0.40;;;;;;;28.51;38.09;96641.78;5004250;28;20838;-28
2021/07/16 02:02:48;;;;;;;3.72;0.60;;;;;;;28.50;38.28;96646.22;5000633;28;20326;-29
2021/07/16 02:05:14;;;;;;;1.48;0.50;;;;;;;28.49;37.99;96641.88;5001145;28;20017;-28
2021/07/16 02:07:39;;;;;;;1.45;0.50;;;;;;;28.49;38.40;96647.16;5007080;28;20049;-29
2021/07/16 02:10:05;;;;;;;1.52;0.40;;;;;;;28.49;38.23;96641.06;5006844;28;20087;-30
2021/07/16 02:12:31;;;;;;;0.88;0.43;;;;;;;28.49;38.16;96641.06;4996152;28;20033;-30
2021/07/16 02:14:56;;;;;;;4.20;0.57;;;;;;;28.48;38.15;96650.75;5004409;28;20239;-28
2021/07/16 02:17:21;;;;;;;1.83;0.43;;;;;;;28.49;38.09;96641.06;5006909;28;20573;-28
2021/07/16 02:19:47;;;;;;;5.30;0.55;;;;;;;28.48;38.23;96645.47;5006175;28;20041;-27
2021/07/16 02:22:12;;;;;;;2.83;0.70;;;;;;;28.46;38.05;96649.16;5003128;28;20101;-27
2021/07/16 02:24:38;;;;;;;1.08;0.47;;;;;;;28.48;38.11;96649.88;5005724;28;20520;-29
2021/07/16 02:27:04;;;;;;;2.17;0.70;;;;;;;28.46;38.08;96649.16;5004140;28;20085;-29
2021/07/16 02:29:50;;;;;;;1.30;0.60;;;;;;;28.46;38.08;96649.16;5006689;28;20025;-27
2021/07/16 02:32:16;;;;;;;4.47;0.68;;;;;;;28.48;37.99;96649.88;5008729;28;20034;-29
2021/07/16 02:34:42;;;;;;;3.28;0.60;;;;;;;28.48;37.99;96649.88;5006322;28;20025;-29
2021/07/16 02:37:07;;;;;;;3.17;0.65;;;;;;;28.48;38.01;96649.88;5006847;28;20040;-27
2021/07/16 02:39:33;;;;;;;2.28;0.70;;;;;;;28.46;38.29;96643.88;5007689;28;20037;-30
2021/07/16 02:41:58;;;;;;;2.92;0.60;;;;;;;28.47;37.84;96645.56;5006082;28;20025;-29
2021/07/16 02:44:23;;;;;;;6.10;0.45;;;;;;;28.47;37.95;96648.19;5005058;28;20029;-29
2021/07/16 02:46:49;;;;;;;1.40;0.73;;;;;;;28.47;37.82;96656.97;5007552;28;20025;-30
2021/07/16 02:49:14;;;;;;;3.33;0.63;;;;;;;28.47;37.94;96653.47;5004208;28;20033;-28
2021/07/16 02:51:39;;;;;;;3.05;0.50;;;;;;;28.48;38.01;96657.78;5004442;28;21224;-28
2021/07/16 02:54:05;;;;;;;0.90;0.50;;;;;;;28.46;38.03;96651.78;5010370;28;20026;-29
2021/07/16 02:56:30;;;;;;;2.92;0.70;;;;;;;28.46;37.83;96657.91;5005506;28;20091;-28
2021/07/16 02:58:56;;;;;;;2.58;0.70;;;;;;;28.46;38.16;96662.34;5005263;28;20760;-29
2021/07/16 03:01:21;;;;;;;2.90;0.70;;;;;;;28.46;38.16;96660.56;5003694;28;20029;-31
2021/07/16 03:03:46;;;;;;;0.63;0.50;;;;;;;28.47;38.06;96666.66;5000618;28;20219;-27
2021/07/16 03:06:12;;;;;;;3.03;0.50;;;;;;;28.45;37.93;96656.22;5008322;28;20056;-29
2021/07/16 03:08:37;;;;;;;2.85;0.80;;;;;;;28.45;37.94;96656.22;5009637;28;20025;-33
2021/07/16 03:11:02;;;;;;;1.02;0.43;;;;;;;28.45;37.78;96660.66;5006965;28;20037;-27
2021/07/16 03:13:28;;;;;;;0.73;0.40;;;;;;;28.45;37.78;96665.91;5002822;28;20524;-33
2021/07/16 03:15:53;;;;;;;2.47;0.70;;;;;;;28.46;37.96;96659.69;5001029;28;20038;-29
2021/07/16 03:18:20;;;;;;;2.65;0.50;;;;;;;28.45;38.00;96658.84;5003830;28;20030;-28
2021/07/16 03:20:46;;;;;;;2.50;0.60;;;;;;;28.46;37.84;96657.06;5005601;28;20021;-30
2021/07/16 03:23:12;;;;;;;1.80;0.43;;;;;;;28.47;37.88;96658.75;5005399;28;20032;-28
2021/07/16 03:25:37;;;;;;;1.33;0.77;;;;;;;28.45;38.06;96666.75;5008569;28;20026;-29
2021/07/16 03:28:04;;;;;;;0.70;0.60;;;;;;;28.45;37.71;96660.66;4999451;28;20550;-31
2021/07/16 03:30:30;;;;;;;1.95;0.68;;;;;;;28.45;37.91;96655.38;5007279;28;20091;-29
2021/07/16 03:32:56;;;;;;;2.92;0.70;;;;;;;28.46;37.88;96662.34;5004194;28;20576;-31
2021/07/16 03:35:21;;;;;;;1.85;0.55;;;;;;;28.46;37.92;96662.34;5005140;28;20485;-27
2021/07/16 03:37:46;;;;;;;1.73;0.60;;;;;;;28.43;37.85;96658.97;5004135;28;20038;-28
2021/07/16 03:40:13;;;;;;;1.95;0.77;;;;;;;28.45;37.94;96660.66;5006520;28;20059;-30
2021/07/16 03:42:39;;;;;;;3.17;0.57;;;;;;;28.45;37.87;96666.75;5004232;28;20032;-30
2021/07/16 03:45:05;;;;;;;7.43;0.88;;;;;;;28.45;37.84;96668.56;5005770;28;20017;-28
2021/07/16 03:47:30;;;;;;;2.13;0.60;;;;;;;28.44;37.79;96665.06;5007560;28;20021;-30
2021/07/16 03:49:57;;;;;;;0.60;0.47;;;;;;;28.44;37.84;96665.06;5008373;28;20499;-30
2021/07/16 03:52:22;;;;;;;3.10;0.80;;;;;;;28.45;37.68;96665.91;5009828;28;20037;-28
2021/07/16 03:54:49;;;;;;;0.50;0.50;;;;;;;28.43;37.68;96666.03;5003701;28;20056;-30
2021/07/16 03:57:14;;;;;;;2.97;0.90;;;;;;;28.41;37.65;96666.13;5006433;28;20030;-28
2021/07/16 03:59:40;;;;;;;1.63;0.70;;;;;;;28.42;37.57;96673.06;5007588;28;20084;-33
2021/07/16 04:02:05;;;;;;;1.75;0.70;;;;;;;28.43;37.84;96663.38;5004044;28;20531;-30
2021/07/16 04:04:32;;;;;;;0.93;0.50;;;;;;;28.42;37.67;96672.25;5005959;28;20042;-32
2021/07/16 04:06:58;;;;;;;3.60;0.77;;;;;;;28.40;37.89;96669.69;5007632;28;20036;-28
2021/07/16 04:09:27;;;;;;;1.13;0.57;;;;;;;28.41;37.56;96660.84;5006553;28;20029;-28
2021/07/16 04:12:14;;;;;;;2.28;0.55;;;;;;;28.40;37.67;96677.59;5007744;28;20028;-29
2021/07/16 04:14:43;;;;;;;1.73;0.63;;;;;;;28.41;37.80;96681.94;5004894;28;20057;-30
2021/07/16 04:17:10;;;;;;;0.40;0.40;;;;;;;28.41;37.72;96681.06;5007144;28;20025;-29
2021/07/16 04:19:36;;;;;;;2.60;0.70;;;;;;;28.41;37.81;96681.06;5004796;28;20025;-28
2021/07/16 04:22:01;;;;;;;3.03;0.82;;;;;;;28.41;37.84;96681.06;5006296;28;20037;-31
2021/07/16 04:24:27;;;;;;;1.58;0.50;;;;;;;28.40;37.84;96680.25;5003357;28;20065;-27
2021/07/16 04:26:52;;;;;;;1.38;0.60;;;;;;;28.41;37.71;96678.44;5006525;28;20060;-29
2021/07/16 04:29:18;;;;;;;2.03;0.68;;;;;;;28.41;37.78;96681.06;5003829;28;20033;-27
2021/07/16 04:31:43;;;;;;;2.35;0.70;;;;;;;28.41;37.87;96681.06;5005400;28;20017;-29
2021/07/16 04:34:08;;;;;;;3.08;0.70;;;;;;;28.40;37.87;96674.97;5004112;28;20017;-29
2021/07/16 04:36:34;;;;;;;1.25;0.50;;;;;;;28.41;37.81;96681.06;5007403;28;20032;-32
2021/07/16 04:38:59;;;;;;;1.83;0.70;;;;;;;28.40;37.82;96680.25;5004241;28;20092;-28
2021/07/16 04:41:25;;;;;;;2.28;0.60;;;;;;;28.40;37.75;96684.66;5003156;28;21035;-30
2021/07/16 04:43:50;;;;;;;1.58;0.50;;;;;;;28.40;37.71;96682.88;5001045;28;20025;-31
2021/07/16 04:46:15;;;;;;;1.67;0.75;;;;;;;28.39;37.72;96683.84;5005727;28;20044;-31
2021/07/16 04:48:41;;;;;;;3.47;0.77;;;;;;;28.40;37.72;96684.66;5006683;28;20029;-28
2021/07/16 04:51:06;;;;;;;1.05;0.60;;;;;;;28.39;37.75;96683.84;4982531;28;20033;-30
2021/07/16 04:53:32;;;;;;;1.95;0.50;;;;;;;28.38;37.98;96687.38;5004484;28;20041;-30
2021/07/16 04:55:57;;;;;;;2.38;0.47;;;;;;;28.39;37.72;96688.25;5004610;28;20042;-28
2021/07/16 04:58:22;;;;;;;4.40;0.93;;;;;;;28.35;37.91;96674.44;5005443;28;20025;-27
2021/07/16 05:00:48;;;;;;;2.78;0.70;;;;;;;28.37;37.62;96675.16;5007173;28;20103;-30
2021/07/16 05:03:13;;;;;;;1.30;0.60;;;;;;;28.38;37.71;96681.28;5005069;28;20372;-29
2021/07/16 05:05:39;;;;;;;2.65;0.85;;;;;;;28.37;37.87;96680.44;5005066;28;20449;-30
2021/07/16 05:08:04;;;;;;;2.70;0.70;;;;;;;28.38;37.89;96687.38;5002117;28;20029;-28
2021/07/16 05:10:30;;;;;;;4.22;0.70;;;;;;;28.37;37.81;96696.25;5002140;28;20152;-28
2021/07/16 05:12:55;;;;;;;1.45;0.60;;;;;;;28.36;37.74;96697.19;5004047;28;20031;-27
2021/07/16 05:15:20;;;;;;;0.57;0.47;;;;;;;28.38;37.97;96707.66;4999473;28;20100;-31
2021/07/16 05:17:46;;;;;;;1.45;0.70;;;;;;;28.38;37.68;96710.28;5005668;28;20025;-28
2021/07/16 05:20:12;;;;;;;2.60;0.60;;;;;;;28.37;37.90;96706.78;5005339;28;20086;-27
2021/07/16 05:22:37;;;;;;;2.08;0.57;;;;;;;28.37;37.90;96712.06;5004412;28;20408;-27
2021/07/16 05:25:03;;;;;;;2.80;0.70;;;;;;;28.37;37.69;96716.50;5000833;28;20025;-28
2021/07/16 05:27:29;;;;;;;0.80;0.52;;;;;;;28.38;37.82;96718.19;5006195;28;20484;-30
2021/07/16 05:29:54;;;;;;;0.63;0.60;;;;;;;28.36;37.89;96726.19;5005061;28;20030;-29
2021/07/16 05:32:20;;;;;;;1.75;0.65;;;;;;;28.36;38.11;96720.91;5000548;28;20042;-28
2021/07/16 05:34:45;;;;;;;0.88;0.75;;;;;;;28.36;37.75;96731.47;5002383;28;20018;-28
2021/07/16 05:37:10;;;;;;;2.22;0.77;;;;;;;28.36;37.77;96728.81;5004300;28;20029;-30
2021/07/16 05:39:37;;;;;;;3.72;0.60;;;;;;;28.36;37.77;96735.88;5003988;28;20033;-29
2021/07/16 05:42:03;;;;;;;1.08;0.70;;;;;;;28.35;37.97;96735.06;5001413;28;20026;-30
2021/07/16 05:44:30;;;;;;;2.13;0.85;;;;;;;28.34;37.99;96732.50;5004804;28;20061;-29
2021/07/16 05:46:55;;;;;;;1.50;0.68;;;;;;;28.36;37.86;96730.59;4989278;28;20083;-30
2021/07/16 05:49:21;;;;;;;1.80;0.90;;;;;;;28.36;37.94;96736.72;5005912;28;20615;-28
2021/07/16 05:51:46;;;;;;;1.52;0.75;;;;;;;28.32;38.04;96729.97;5001884;28;20029;-29
2021/07/16 05:54:12;;;;;;;5.05;1.00;;;;;;;28.36;37.92;96742.00;5002383;28;20072;-28
2021/07/16 05:56:40;;;;;;;2.92;0.50;;;;;;;28.35;38.01;96740.31;4998813;28;20052;-30
2021/07/16 05:59:06;;;;;;;1.88;0.70;;;;;;;28.36;38.14;96742.00;5003065;28;20541;-29
2021/07/16 06:01:32;;;;;;;1.05;0.60;;;;;;;28.36;38.16;96742.00;5002268;28;20040;-28
2021/07/16 06:03:57;;;;;;;0.98;0.60;;;;;;;28.36;37.91;96742.00;5003091;28;20026;-28
2021/07/16 06:06:22;;;;;;;1.73;0.60;;;;;;;28.36;37.95;96747.28;5005618;28;20033;-28
2021/07/16 06:08:48;;;;;;;3.72;0.68;;;;;;;28.36;38.17;96757.81;5005271;28;20022;-30
2021/07/16 06:11:13;;;;;;;0.93;0.68;;;;;;;28.36;38.12;96751.69;5009056;28;20897;-28
2021/07/16 06:13:39;;;;;;;1.48;0.82;;;;;;;28.38;38.31;96755.09;5010427;28;20031;-28
2021/07/16 06:16:04;;;;;;;0.75;0.60;;;;;;;28.38;38.01;96761.19;4987539;28;20056;-28
2021/07/16 06:18:30;;;;;;;1.75;0.80;;;;;;;28.36;38.02;96757.81;5009276;28;20033;-29
2021/07/16 06:20:55;;;;;;;3.53;0.60;;;;;;;28.37;38.29;96758.69;5004128;28;20025;-28
2021/07/16 06:23:23;;;;;;;4.68;0.80;;;;;;;28.37;38.18;96762.13;5007290;28;20087;-28
2021/07/16 06:25:48;;;;;;;3.60;0.90;;;;;;;28.38;38.30;96771.72;5008733;28;20036;-29
2021/07/16 06:28:13;;;;;;;5.65;1.23;;;;;;;28.38;38.12;96766.47;5008032;28;20033;-28
2021/07/16 06:30:39;;;;;;;19.65;3.60;;;;;;;28.38;38.45;96766.47;5000161;28;20747;-30
2021/07/16 06:33:04;;;;;;;18.92;4.90;;;;;;;28.38;38.31;96761.19;5021652;28;20399;-29
2021/07/16 06:35:30;;;;;;;19.00;3.92;;;;;;;28.37;38.46;96764.78;5002702;28;20092;-28
2021/07/16 06:37:55;;;;;;;12.70;3.00;;;;;;;28.36;38.60;96757.81;5003453;28;20032;-29
2021/07/16 06:40:21;;;;;;;8.50;2.58;;;;;;;28.35;38.63;96765.81;5005454;28;20484;-29
2021/07/16 06:42:46;;;;;;;13.02;2.67;;;;;;;28.34;38.67;96770.22;5007080;28;20029;-28
2021/07/16 06:45:11;;;;;;;7.25;2.42;;;;;;;28.33;38.75;96768.53;5005920;28;20372;-27
2021/07/16 06:47:37;;;;;;;8.82;2.47;;;;;;;28.33;38.64;96773.81;4995514;28;20542;-30
2021/07/16 06:50:02;;;;;;;12.18;2.75;;;;;;;28.34;38.66;96775.50;5001735;28;20220;-29
2021/07/16 06:52:28;;;;;;;8.88;2.83;;;;;;;28.33;38.71;96773.81;5000996;28;20707;-29
2021/07/16 06:54:53;;;;;;;8.07;2.70;;;;;;;28.32;38.67;96768.63;5000544;28;20034;-30
2021/07/16 06:57:19;;;;;;;8.18;2.45;;;;;;;28.30;38.67;96771.41;5002905;28;20029;-30
2021/07/16 06:59:45;;;;;;;6.10;2.92;;;;;;;28.27;38.84;96776.84;5002293;28;20034;-29
2021/07/16 07:02:21;;;;;;;6.55;2.47;;;;;;;28.27;38.84;96776.84;5001265;28;20192;-28
2021/07/16 07:04:47;;;;;;;6.15;2.80;;;;;;;28.21;38.68;96778.06;5002961;28;20061;-29
2021/07/16 07:07:12;;;;;;;6.35;2.83;;;;;;;28.20;38.76;96783.41;5005599;28;20087;-29
2021/07/16 07:09:37;;;;;;;3.45;2.40;;;;;;;28.19;38.86;96787.88;5004337;28;20267;-30
2021/07/16 07:12:03;;;;;;;5.82;2.50;;;;;;;28.17;38.78;96790.59;5002203;28;20038;-28
2021/07/16 07:14:28;;;;;;;4.03;2.70;;;;;;;28.15;38.96;96800.34;5001254;28;20047;-30
2021/07/16 07:16:54;;;;;;;4.50;2.13;;;;;;;28.13;38.87;96794.34;5003007;28;20021;-29
2021/07/16 07:19:19;;;;;;;5.00;2.30;;;;;;;28.13;38.99;96804.91;5003825;28;20937;-32
2021/07/16 07:21:45;;;;;;;6.13;2.47;;;;;;;28.12;38.96;96803.22;5001340;28;20033;-29
2021/07/16 07:24:10;;;;;;;9.73;2.10;;;;;;;28.13;39.09;96804.03;5002379;28;20030;-29
2021/07/16 07:26:36;;;;;;;4.95;2.38;;;;;;;28.13;39.07;96807.53;5003095;28;20604;-29
2021/07/16 07:29:01;;;;;;;6.15;2.17;;;;;;;28.13;39.05;96809.31;5018825;28;20091;-26
2021/07/16 07:31:27;;;;;;;7.00;2.50;;;;;;;28.13;38.94;96815.44;5001903;28;20088;-28
2021/07/16 07:33:52;;;;;;;4.60;2.33;;;;;;;28.13;39.02;96806.66;5006063;28;20026;-29
2021/07/16 07:36:17;;;;;;;4.68;2.47;;;;;;;28.12;39.16;96808.47;5003869;28;20083;-29
2021/07/16 07:38:44;;;;;;;6.68;2.75;;;;;;;28.11;38.80;96812.03;5004642;28;20052;-30
2021/07/16 07:41:09;;;;;;;21.00;3.42;;;;;;;28.10;39.27;96823.53;5004100;28;20036;-28
2021/07/16 07:43:35;;;;;;;7.85;3.33;;;;;;;28.08;39.04;96814.03;5003934;28;20025;-30
2021/07/16 07:46:00;;;;;;;10.20;3.50;;;;;;;28.03;38.90;96819.56;5007995;28;20045;-28
2021/07/16 07:48:25;;;;;;;10.68;3.17;;;;;;;27.95;39.17;96812.13;5007836;28;20033;-30
2021/07/16 07:50:51;;;;;;;10.65;2.70;;;;;;;27.90;39.13;96822.13;5006963;28;20029;-29
2021/07/16 07:53:16;;;;;;;7.00;2.50;;;;;;;27.83;38.97;96813.75;5010266;28;20046;-28
2021/07/16 07:55:42;;;;;;;4.57;2.25;;;;;;;27.79;39.00;96817.50;5007232;28;20022;-28
2021/07/16 07:58:07;;;;;;;7.45;2.80;;;;;;;27.73;39.34;96820.53;5008259;28;20102;-31
2021/07/16 08:00:33;;;;;;;6.28;2.65;;;;;;;27.65;39.23;96832.34;5010831;28;20487;-30
2021/07/16 08:02:58;;;;;;;5.88;2.83;;;;;;;27.60;39.60;96834.41;5003767;28;20580;-30
2021/07/16 08:05:24;;;;;;;8.55;3.47;;;;;;;27.55;39.82;96832.97;5004948;28;20034;-27
2021/07/16 08:07:49;;;;;;;6.40;3.13;;;;;;;27.49;39.95;96835.03;5005979;28;20037;-32
2021/07/16 08:10:16;;;;;;;13.05;4.10;;;;;;;27.45;39.95;96837.94;5005083;28;20117;-28
2021/07/16 08:12:42;;;;;;;9.07;3.95;;;;;;;27.38;40.17;96838.31;5004760;28;20022;-30
2021/07/16 08:15:08;;;;;;;6.68;3.53;;;;;;;27.32;39.97;96838.69;5008310;28;20561;-28
2021/07/16 08:17:33;;;;;;;4.47;3.30;;;;;;;27.28;40.16;96839.78;5008918;28;20090;-29
2021/07/16 08:19:59;;;;;;;5.45;3.00;;;;;;;27.21;40.18;96835.81;5006444;28;20049;-30
2021/07/16 08:22:24;;;;;;;4.70;2.83;;;;;;;27.18;40.10;96839.47;5007427;28;20029;-31
2021/07/16 08:24:50;;;;;;;10.43;3.70;;;;;;;27.14;39.98;96837.94;5004414;28;20029;-29
2021/07/16 08:27:15;;;;;;;3.80;3.30;;;;;;;27.09;40.09;96830.34;5006107;28;20034;-29
2021/07/16 08:29:41;;;;;;;3.70;3.17;;;;;;;27.05;40.16;96834.09;5008315;28;20034;-29
2021/07/16 08:32:06;;;;;;;4.30;3.10;;;;;;;27.03;40.52;96835.13;5013973;28;20037;-29
2021/07/16 08:34:32;;;;;;;3.72;2.90;;;;;;;27.01;40.75;96840.47;5007257;28;20030;-28
2021/07/16 08:36:57;;;;;;;5.43;3.30;;;;;;;26.99;40.49;96829.16;5004386;28;20092;-31
2021/07/16 08:39:23;;;;;;;5.25;3.30;;;;;;;26.95;40.47;96832.91;5010291;28;20018;-29
2021/07/16 08:41:48;;;;;;;8.35;3.72;;;;;;;26.91;40.71;96841.88;5007553;28;20303;-30
2021/07/16 08:44:14;;;;;;;9.60;3.67;;;;;;;26.87;40.76;96839.44;5000066;28;20033;-28
2021/07/16 08:46:43;;;;;;;7.07;3.45;;;;;;;26.83;40.63;96839.69;5006727;28;20018;-31
2021/07/16 08:49:08;;;;;;;8.63;3.90;;;;;;;26.79;40.76;96846.91;5005027;28;20040;-28
2021/07/16 08:51:35;;;;;;;7.30;3.58;;;;;;;26.74;40.73;96841.06;4989241;28;20038;-30
2021/07/16 08:54:00;;;;;;;5.43;3.60;;;;;;;26.72;41.10;96845.53;4992235;28;20032;-30
2021/07/16 08:56:26;;;;;;;5.95;3.42;;;;;;;26.71;40.98;96846.47;5006103;28;20029;-27
2021/07/16 08:58:52;;;;;;;3.95;3.00;;;;;;;26.70;41.00;96843.00;5006236;28;20029;-31
2021/07/16 09:01:17;;;;;;;3.50;2.97;;;;;;;26.71;41.01;96841.22;5006685;28;20037;-28
2021/07/16 09:04:05;;;;;;;2.72;2.53;;;;;;;26.70;40.61;96840.38;5005790;28;20099;-28
2021/07/16 09:06:53;;;;;;;3.40;2.80;;;;;;;26.68;40.56;96847.50;5002989;28;20111;-30
2021/07/16 09:09:19;;;;;;;5.93;2.88;;;;;;;26.66;41.04;96849.34;5003162;28;20029;-32
2021/07/16 09:11:49;;;;;;;7.30;3.50;;;;;;;26.68;41.30;96852.75;5008158;28;20029;-28
2021/07/16 09:14:25;;;;;;;7.00;3.50;;;;;;;26.68;41.11;96852.75;5004902;28;20025;-29
2021/07/16 09:17:04;;;;;;;7.03;3.65;;;;;;;26.67;40.84;96847.59;5005876;28;20038;-32
2021/07/16 09:19:31;;;;;;;7.20;3.40;;;;;;;26.64;41.05;96845.13;5004928;28;20037;-30
2021/07/16 09:22:15;;;;;;;15.68;4.10;;;;;;;26.60;40.94;96839.19;5002994;28;20053;-29
2021/07/16 09:24:57;;;;;;;9.48;3.08;;;;;;;26.56;41.15;96849.03;5004032;28;20041;-32
2021/07/16 09:27:39;;;;;;;;;;;;;;;26.56;41.17;96848.19;5005173;28;20096;-28
2021/07/16 09:30:14;;;;;;;4.65;2.92;;;;;;;26.54;41.29;96845.63;5007662;28;19916;-29
2021/07/16 09:32:40;;;;;;;6.40;3.47;;;;;;;26.54;41.43;96850.91;5006465;28;20790;-28
2021/07/16 09:35:06;;;;;;;5.05;3.40;;;;;;;26.52;41.41;96844.03;5005008;28;20495;-29
2021/07/16 09:37:32;;;;;;;7.90;3.42;;;;;;;26.53;41.31;96859.72;5009691;28;20333;-30
2021/07/16 09:39:58;;;;;;;5.80;3.55;;;;;;;26.51;41.20;96856.34;5011034;28;20041;-28
2021/07/16 09:42:24;;;;;;;9.88;3.88;;;;;;;26.50;41.22;96848.53;5010749;28;20029;-30
2021/07/16 09:44:57;;;;;;;9.02;3.70;;;;;;;26.50;41.12;96861.69;5010117;28;20079;-30
2021/07/16 09:47:22;;;;;;;4.47;3.50;;;;;;;26.47;41.04;96849.56;5006306;28;20044;-28
2021/07/16 09:50:10;;;;;;;6.88;3.25;;;;;;;26.48;40.87;96851.25;5006009;28;20034;-30
2021/07/16 09:52:35;;;;;;;5.28;3.33;;;;;;;26.51;40.90;96855.47;5005552;28;20580;-28
2021/07/16 09:55:20;;;;;;;4.38;2.70;;;;;;;26.55;40.90;96855.22;5007495;28;20036;-29
2021/07/16 09:57:49;;;;;;;3.35;2.85;;;;;;;26.59;40.91;96851.47;5008676;28;20144;-32
2021/07/16 10:00:15;;;;;;;9.18;3.05;;;;;;;26.65;40.85;96846.84;5006493;28;20025;-27
2021/07/16 10:02:45;;;;;;;6.30;2.90;;;;;;;26.72;40.85;96842.91;5009282;28;20373;-28
2021/07/16 10:05:11;;;;;;;4.32;2.60;;;;;;;26.76;40.81;96849.69;5011531;28;20033;-28
2021/07/16 10:07:36;;;;;;;3.33;2.50;;;;;;;26.82;40.78;96844.13;5009362;28;20021;-31
2021/07/16 10:10:02;;;;;;;4.45;2.83;;;;;;;26.87;40.89;96847.31;5011516;28;20018;-29
2021/07/16 10:12:28;;;;;;;3.08;2.35;;;;;;;26.94;40.76;96846.97;5007022;28;20030;-27
2021/07/16 10:14:54;;;;;;;5.20;2.50;;;;;;;26.98;40.64;96848.50;4992530;28;20025;-28
2021/07/16 10:17:19;;;;;;;4.47;2.40;;;;;;;27.04;40.61;96853.41;4994139;28;20029;-31
2021/07/16 10:19:45;;;;;;;3.53;2.25;;;;;;;27.07;40.60;96853.25;5002070;28;20474;-30
2021/07/16 10:22:10;;;;;;;3.40;2.15;;;;;;;27.12;40.51;96851.19;4989141;28;20040;-32
2021/07/16 10:24:37;;;;;;;3.05;2.20;;;;;;;27.17;40.70;96850.06;4991693;28;20029;-29
2021/07/16 10:27:04;;;;;;;4.53;2.30;;;;;;;27.21;40.55;96849.81;5006082;28;20037;-30
2021/07/16 10:29:37;;;;;;;6.30;2.20;;;;;;;27.25;40.44;96845.22;5010880;28;20140;-32
2021/07/16 10:32:03;;;;;;;3.58;2.20;;;;;;;27.27;40.51;96856.53;5012514;28;20018;-30
2021/07/16 10:34:29;;;;;;;2.60;2.00;;;;;;;27.31;40.52;96855.38;5011668;28;20021;-32
2021/07/16 10:37:03;;;;;;;2.17;1.85;;;;;;;27.33;40.56;96858.78;5006490;28;20025;-27
2021/07/16 10:39:38;;;;;;;4.38;2.25;;;;;;;27.37;40.59;96855.03;5010013;28;20022;-28
2021/07/16 10:42:25;;;;;;;5.28;2.10;;;;;;;27.38;40.46;96856.72;5009032;28;20047;-27
2021/07/16 10:44:51;;;;;;;4.90;2.20;;;;;;;27.41;40.58;96865.38;5009217;28;20099;-29
2021/07/16 10:47:35;;;;;;;8.38;2.17;;;;;;;27.38;40.58;96846.19;5008225;28;20064;-29
2021/07/16 10:50:01;;;;;;;5.30;2.22;;;;;;;27.44;40.61;96859.94;5009107;28;20055;-29
2021/07/16 10:52:49;;;;;;;4.60;2.10;;;;;;;27.46;40.79;96856.25;5007960;28;20025;-29
2021/07/16 10:55:39;;;;;;;7.13;2.20;;;;;;;27.48;41.01;96854.41;5007817;28;20032;-31
2021/07/16 10:58:20;;;;;;;3.33;1.92;;;;;;;27.51;40.81;96861.25;4973928;28;20037;-26
2021/07/16 11:00:48;;;;;;;5.10;2.28;;;;;;;27.53;40.82;96859.38;5024796;28;20111;-30
2021/07/16 11:03:13;;;;;;;5.90;2.25;;;;;;;27.53;40.91;96862.88;5010249;28;20033;-31
2021/07/16 11:05:39;;;;;;;4.82;2.00;;;;;;;27.55;40.87;96852.25;5007663;28;20130;-26
2021/07/16 11:08:27;;;;;;;3.13;1.95;;;;;;;27.58;40.83;96865.22;5008284;28;20108;-30
2021/07/16 11:11:02;;;;;;;2.30;1.80;;;;;;;27.60;40.79;96868.63;5008713;28;20044;-27
2021/07/16 11:13:33;;;;;;;4.47;1.60;;;;;;;27.62;40.81;96861.50;5008493;28;20092;-28
2021/07/16 11:15:59;;;;;;;4.25;1.90;;;;;;;27.63;40.84;96860.56;5004832;28;20026;-30
2021/07/16 11:18:28;;;;;;;4.38;2.17;;;;;;;27.63;40.81;96860.56;5009103;28;20051;-28
2021/07/16 11:20:54;;;;;;;1.70;1.60;;;;;;;27.64;40.84;96859.63;5008152;28;20048;-31
2021/07/16 11:23:20;;;;;;;4.00;1.90;;;;;;;27.67;40.91;96857.75;5007190;28;20030;-30
2021/07/16 11:25:46;;;;;;;3.25;1.70;;;;;;;27.69;40.88;96864.59;5009243;28;20148;-31
2021/07/16 11:28:11;;;;;;;3.38;1.70;;;;;;;27.67;40.87;96860.38;5007772;28;20034;-30
2021/07/16 11:30:37;;;;;;;3.13;1.73;;;;;;;27.71;41.11;96861.88;5007954;28;20060;-30
2021/07/16 11:33:03;;;;;;;2.72;1.70;;;;;;;27.73;41.01;96867.91;5010095;28;20038;-28